Time;durP1;ratioP1;P1;durP2;ratioP2;P2;SDS_P1;SDS_P2;PMS_P1;PMS_P2;Temp;Humidity;BMP_temperature;BMP_pressure;BME280_temperature;BME280_humidity;BME280_pressure;Samples;Min_cycle;Max_cycle;Signal;HPM_P1;HPM_P2
2022/11/23 00:00:28;;;;;;;49.50;24.63;;;2.60;98.90;;;;;;6211442;23;20185;-46
2022/11/23 00:02:55;;;;;;;47.07;22.77;;;2.60;77.80;;;;;;6211600;23;20442;-46
2022/11/23 00:05:21;;;;;;;46.10;23.37;;;2.50;54.90;;;;;;6211923;23;20189;-46
2022/11/23 00:07:46;;;;;;;50.50;23.63;;;2.60;50.70;;;;;;6160601;23;20393;-46
2022/11/23 00:10:12;;;;;;;52.70;22.50;;;2.60;54.50;;;;;;6211886;23;20146;-46
2022/11/23 00:12:38;;;;;;;49.60;23.97;;;2.60;48.90;;;;;;6211455;23;20209;-47
2022/11/23 00:15:04;;;;;;;50.87;23.63;;;2.50;28.90;;;;;;6185394;23;20166;-46
2022/11/23 00:17:30;;;;;;;49.93;22.93;;;2.50;11.80;;;;;;6213048;23;20166;-46
2022/11/23 00:19:56;;;;;;;47.97;23.90;;;2.50;1.00;;;;;;6212555;23;20766;-46
2022/11/23 00:22:21;;;;;;;52.73;23.23;;;2.50;1.00;;;;;;6212458;23;20150;-46
2022/11/23 00:24:47;;;;;;;46.93;22.80;;;2.50;8.40;;;;;;6213297;23;20146;-47
2022/11/23 00:27:12;;;;;;;51.30;24.40;;;2.50;4.50;;;;;;6212489;23;20186;-46
2022/11/23 00:29:38;;;;;;;49.07;23.37;;;2.50;11.70;;;;;;6212071;23;20158;-46
2022/11/23 00:32:04;;;;;;;49.57;24.30;;;2.60;16.10;;;;;;6213064;23;20392;-47
2022/11/23 00:34:30;;;;;;;52.17;24.73;;;2.60;2.10;;;;;;6211962;23;20158;-46
2022/11/23 00:36:55;;;;;;;52.37;25.40;;;2.60;1.00;;;;;;6212505;23;20151;-46
2022/11/23 00:39:21;;;;;;;55.90;24.33;;;2.50;1.00;;;;;;6212686;23;20308;-45
2022/11/23 00:41:47;;;;;;;48.30;25.00;;;2.60;1.00;;;;;;6212331;23;20211;-46
2022/11/23 00:44:12;;;;;;;48.07;23.67;;;2.50;1.00;;;;;;6212315;23;20366;-47
2022/11/23 00:46:38;;;;;;;51.80;23.53;;;2.60;1.00;;;;;;6211551;23;20162;-46
2022/11/23 00:49:05;;;;;;;46.03;23.00;;;2.50;1.00;;;;;;6211934;23;20185;-47
2022/11/23 00:51:33;;;;;;;47.60;24.33;;;2.60;1.00;;;;;;6210810;23;20147;-46
2022/11/23 00:54:00;;;;;;;53.10;23.97;;;2.60;1.00;;;;;;6211309;23;20381;-50
2022/11/23 00:56:27;;;;;;;44.77;22.50;;;2.60;1.00;;;;;;6211712;23;20362;-46
2022/11/23 00:58:55;;;;;;;44.73;22.47;;;2.60;1.00;;;;;;6212037;23;20372;-46
2022/11/23 01:01:23;;;;;;;52.00;24.17;;;2.60;1.00;;;;;;6211422;23;20872;-46
2022/11/23 01:03:52;;;;;;;49.73;23.50;;;2.50;1.00;;;;;;6211265;23;20804;-46
2022/11/23 01:06:31;;;;;;;61.93;25.90;;;2.60;1.00;;;;;;6211462;23;20457;-46
2022/11/23 01:09:12;;;;;;;52.40;24.23;;;2.60;1.00;;;;;;6211734;23;20449;-46
2022/11/23 01:11:37;;;;;;;47.93;23.90;;;2.70;1.00;;;;;;6211334;23;20986;-46
2022/11/23 01:14:03;;;;;;;43.70;22.80;;;2.60;1.00;;;;;;6211751;23;20516;-46
2022/11/23 01:16:35;;;;;;;49.50;24.17;;;2.70;1.00;;;;;;6186658;23;20201;-58
2022/11/23 01:19:07;;;;;;;50.83;24.33;;;2.70;1.00;;;;;;6214488;23;20218;-46
2022/11/23 01:21:34;;;;;;;49.60;24.00;;;2.60;1.00;;;;;;6186555;23;20459;-46
2022/11/23 01:24:02;;;;;;;46.40;24.23;;;2.60;1.00;;;;;;6213594;23;20408;-46
2022/11/23 01:26:28;;;;;;;49.03;22.07;;;2.70;1.00;;;;;;6213728;23;20385;-46
2022/11/23 01:28:53;;;;;;;50.50;24.27;;;2.70;1.00;;;;;;6187004;23;20400;-53
2022/11/23 01:31:22;;;;;;;61.70;24.30;;;2.70;1.00;;;;;;6186669;23;20162;-45
2022/11/23 01:33:52;;;;;;;53.07;23.97;;;2.70;1.00;;;;;;6188104;23;20166;-45
2022/11/23 01:36:20;;;;;;;49.67;25.00;;;2.70;1.00;;;;;;6214293;23;20688;-45
2022/11/23 01:38:47;;;;;;;48.27;23.87;;;2.60;1.00;;;;;;6214360;23;20397;-45
2022/11/23 01:41:15;;;;;;;43.90;20.80;;;2.60;1.00;;;;;;6214381;23;20436;-45
2022/11/23 01:43:41;;;;;;;45.73;22.53;;;2.60;1.00;;;;;;6214706;23;20427;-45
2022/11/23 01:46:08;;;;;;;46.07;23.40;;;2.60;1.00;;;;;;6214024;23;20362;-46
2022/11/23 01:48:45;;;;;;;51.33;22.10;;;2.70;1.00;;;;;;6213897;23;20682;-45
2022/11/23 01:51:25;;;;;;;49.07;22.60;;;2.70;1.00;;;;;;6212856;23;20369;-45
2022/11/23 01:53:53;;;;;;;54.70;23.13;;;2.70;1.00;;;;;;6213673;23;20403;-46
2022/11/23 01:56:27;;;;;;;44.67;20.70;;;2.70;1.00;;;;;;6212828;23;20408;-45
2022/11/23 01:58:57;;;;;;;46.17;22.40;;;2.70;1.00;;;;;;6213458;23;20650;-45
2022/11/23 02:01:23;;;;;;;46.23;22.17;;;2.80;1.00;;;;;;6214103;23;20388;-45
2022/11/23 02:03:51;;;;;;;44.33;21.27;;;2.70;1.00;;;;;;6212854;23;20366;-45
2022/11/23 02:06:18;;;;;;;45.90;22.30;;;2.80;1.00;;;;;;6213086;23;20234;-45
2022/11/23 02:08:46;;;;;;;40.60;21.07;;;2.90;1.00;;;;;;6213922;23;20404;-46
2022/11/23 02:11:13;;;;;;;45.00;22.90;;;2.80;1.00;;;;;;6212823;23;20406;-45
2022/11/23 02:13:41;;;;;;;48.53;22.47;;;2.80;1.00;;;;;;6213174;23;20762;-45
2022/11/23 02:16:07;;;;;;;48.83;21.93;;;2.80;1.00;;;;;;6213552;23;20369;-45
2022/11/23 02:18:36;;;;;;;41.93;21.53;;;2.80;1.00;;;;;;6213929;23;20457;-46
2022/11/23 02:21:03;;;;;;;47.00;22.93;;;2.80;1.00;;;;;;6212384;23;20420;-45
2022/11/23 02:24:23;;;;;;;41.37;21.90;;;2.80;1.00;;;;;;6213299;23;20812;-45
2022/11/23 02:26:49;;;;;;;45.37;20.47;;;2.90;1.00;;;;;;6096324;23;20392;-45
2022/11/23 02:29:23;;;;;;;50.40;23.70;;;3.00;1.00;;;;;;6166993;23;20392;-45
2022/11/23 02:31:48;;;;;;;48.40;22.73;;;3.00;1.00;;;;;;6212907;23;20142;-45
2022/11/23 02:34:16;;;;;;;43.90;22.13;;;3.00;1.00;;;;;;6185789;23;20396;-45
2022/11/23 02:36:52;;;;;;;49.93;22.77;;;3.00;1.00;;;;;;6212093;23;20161;-45
2022/11/23 02:39:48;;;;;;;45.20;22.40;;;3.00;1.00;;;;;;6212337;23;20429;-45
2022/11/23 02:42:14;;;;;;;44.17;21.37;;;3.00;1.00;;;;;;6202338;23;20686;-45
2022/11/23 02:45:05;;;;;;;43.03;21.73;;;2.90;1.00;;;;;;6185905;23;20446;-45
2022/11/23 02:47:31;;;;;;;41.40;21.30;;;2.90;1.00;;;;;;6213262;23;20208;-45
2022/11/23 02:49:56;;;;;;;50.70;22.80;;;3.00;1.00;;;;;;6211154;23;20421;-45
2022/11/23 02:52:22;;;;;;;48.67;21.83;;;2.90;1.00;;;;;;6185962;23;20174;-45
2022/11/23 02:54:48;;;;;;;46.50;22.83;;;2.90;1.00;;;;;;6212222;23;20157;-45
2022/11/23 02:57:14;;;;;;;43.53;22.60;;;3.00;8.60;;;;;;6212369;23;20183;-45
2022/11/23 02:59:39;;;;;;;50.40;22.07;;;3.00;22.60;;;;;;6212140;23;20206;-45
2022/11/23 03:02:05;;;;;;;43.40;20.47;;;3.00;40.70;;;;;;6212324;23;20400;-45
2022/11/23 03:04:31;;;;;;;46.70;22.23;;;3.00;72.50;;;;;;6212373;23;20147;-45
2022/11/23 03:06:57;;;;;;;43.50;21.13;;;3.00;99.90;;;;;;6212414;23;20161;-45
2022/11/23 03:09:24;;;;;;;35.83;20.40;;;3.00;99.90;;;;;;6212490;23;21062;-45
2022/11/23 03:11:51;;;;;;;38.10;20.83;;;3.00;99.90;;;;;;6214492;23;21031;-45
2022/11/23 03:14:16;;;;;;;47.77;23.10;;;3.00;99.90;;;;;;6208620;23;20447;-45
2022/11/23 03:16:42;;;;;;;48.17;23.90;;;3.00;99.90;;;;;;6183358;23;20445;-45
2022/11/23 03:19:08;;;;;;;42.77;21.63;;;3.00;99.90;;;;;;6212875;23;20150;-45
2022/11/23 03:21:33;;;;;;;46.23;21.67;;;3.00;99.90;;;;;;6211938;23;20153;-45
2022/11/23 03:23:59;;;;;;;39.00;20.70;;;3.10;99.90;;;;;;6212873;23;20213;-45
2022/11/23 03:26:24;;;;;;;40.83;20.40;;;3.10;99.90;;;;;;6212280;23;20150;-45
2022/11/23 03:28:50;;;;;;;40.80;21.00;;;3.10;99.90;;;;;;6212173;23;20185;-45
2022/11/23 03:31:16;;;;;;;46.13;22.00;;;3.00;99.90;;;;;;6212841;23;20362;-45
2022/11/23 03:33:42;;;;;;;47.83;21.80;;;3.10;99.90;;;;;;6211990;23;20761;-45
2022/11/23 03:36:07;;;;;;;47.73;21.77;;;3.10;99.90;;;;;;6212052;23;20170;-45
2022/11/23 03:38:33;;;;;;;41.83;20.73;;;3.10;99.90;;;;;;6212254;23;20169;-45
2022/11/23 03:40:59;;;;;;;46.37;20.40;;;3.20;99.90;;;;;;6185368;23;20186;-45
2022/11/23 03:43:24;;;;;;;38.60;21.77;;;3.20;99.90;;;;;;6211708;23;20205;-45
2022/11/23 03:45:50;;;;;;;43.43;21.27;;;3.20;99.90;;;;;;6211922;23;20418;-45
2022/11/23 03:48:16;;;;;;;38.47;20.83;;;3.20;99.90;;;;;;6211506;23;20143;-45
2022/11/23 03:50:43;;;;;;;43.83;21.93;;;3.20;99.90;;;;;;6211797;23;20492;-44
2022/11/23 03:53:09;;;;;;;43.20;21.70;;;3.30;99.90;;;;;;6212344;23;20694;-45
2022/11/23 03:55:34;;;;;;;44.87;20.43;;;3.30;99.90;;;;;;6211397;23;20389;-45
2022/11/23 03:58:00;;;;;;;37.03;19.80;;;3.30;99.90;;;;;;6211263;23;20150;-45
2022/11/23 04:00:27;;;;;;;44.27;21.07;;;3.30;99.90;;;;;;6212175;23;20213;-47
2022/11/23 04:02:53;;;;;;;39.63;21.20;;;3.30;99.90;;;;;;6213771;23;20385;-44
2022/11/23 04:05:19;;;;;;;42.20;21.13;;;3.40;99.90;;;;;;6213824;23;20842;-45
2022/11/23 04:07:46;;;;;;;40.93;20.17;;;3.40;99.90;;;;;;6213750;23;20420;-56
2022/11/23 04:10:17;;;;;;;38.07;19.03;;;3.40;99.90;;;;;;6212784;23;20684;-45
2022/11/23 04:12:43;;;;;;;46.47;21.80;;;3.40;99.90;;;;;;6186004;23;20421;-44
2022/11/23 04:15:10;;;;;;;37.77;20.40;;;3.40;99.90;;;;;;6211942;23;20388;-45
2022/11/23 04:17:36;;;;;;;39.70;20.83;;;3.40;99.90;;;;;;6212734;23;20445;-45
2022/11/23 04:20:02;;;;;;;36.90;19.30;;;3.40;99.90;;;;;;6212035;23;20902;-45
2022/11/23 04:22:27;;;;;;;39.93;19.87;;;3.40;99.90;;;;;;6211529;23;20139;-45
2022/11/23 04:24:53;;;;;;;35.90;18.87;;;3.40;99.90;;;;;;6211486;23;20381;-44
2022/11/23 04:27:18;;;;;;;39.53;19.53;;;3.50;99.90;;;;;;6184683;23;20154;-44
2022/11/23 04:29:44;;;;;;;36.27;19.40;;;3.50;99.90;;;;;;6184752;23;20166;-46
2022/11/23 04:32:10;;;;;;;43.40;21.60;;;3.50;99.90;;;;;;6212283;23;20158;-45
2022/11/23 04:34:35;;;;;;;38.80;19.27;;;3.60;99.90;;;;;;6211626;23;20151;-45
2022/11/23 04:37:01;;;;;;;36.37;17.93;;;3.50;99.90;;;;;;6185608;23;20201;-44
2022/11/23 04:39:26;;;;;;;43.97;20.40;;;3.60;99.90;;;;;;6210669;23;20213;-45
2022/11/23 04:41:52;;;;;;;35.20;19.63;;;3.60;99.90;;;;;;6211762;23;20564;-45
2022/11/23 04:44:19;;;;;;;41.73;19.70;;;3.50;99.90;;;;;;6212697;23;20166;-45
2022/11/23 04:46:45;;;;;;;41.23;21.03;;;3.50;99.90;;;;;;6212277;23;20188;-45
2022/11/23 04:49:11;;;;;;;35.93;19.20;;;3.50;99.90;;;;;;6211890;23;20872;-46
2022/11/23 04:51:36;;;;;;;39.77;19.60;;;3.50;99.90;;;;;;6213816;23;20148;-45
2022/11/23 04:54:02;;;;;;;36.30;19.40;;;3.50;99.90;;;;;;6214768;23;20158;-45
2022/11/23 04:56:28;;;;;;;35.77;19.10;;;3.50;99.90;;;;;;6215762;23;20874;-45
2022/11/23 04:58:53;;;;;;;41.33;19.27;;;3.50;99.90;;;;;;6213782;23;20162;-45
2022/11/23 05:01:19;;;;;;;36.50;19.67;;;3.50;99.90;;;;;;6214342;23;20182;-45
2022/11/23 05:03:46;;;;;;;32.90;18.87;;;3.50;99.90;;;;;;6186690;23;20205;-45
2022/11/23 05:06:11;;;;;;;33.23;18.20;;;3.50;99.90;;;;;;6214699;23;20151;-46
2022/11/23 05:08:37;;;;;;;36.30;19.40;;;3.50;99.90;;;;;;6213814;23;20388;-54
2022/11/23 05:11:02;;;;;;;38.60;19.70;;;3.50;99.90;;;;;;6213424;23;20175;-53
2022/11/23 05:13:28;;;;;;;34.17;18.43;;;3.60;99.90;;;;;;6214591;23;20212;-54
2022/11/23 05:15:54;;;;;;;44.90;19.70;;;3.50;99.90;;;;;;6215476;23;20154;-54
2022/11/23 05:18:19;;;;;;;38.30;19.00;;;3.60;99.90;;;;;;6214577;23;20158;-52
2022/11/23 05:20:45;;;;;;;37.10;18.93;;;3.60;99.90;;;;;;6215321;23;20198;-54
2022/11/23 05:23:11;;;;;;;39.23;20.83;;;3.60;99.90;;;;;;6215561;23;20143;-55
2022/11/23 05:25:37;;;;;;;42.50;20.33;;;3.60;99.90;;;;;;6187627;23;20166;-54
2022/11/23 05:28:02;;;;;;;39.40;20.30;;;3.60;99.90;;;;;;6187013;23;20190;-54
2022/11/23 05:30:30;;;;;;;34.57;19.50;;;3.60;99.90;;;;;;6211561;23;20385;-54
2022/11/23 05:33:02;;;;;;;32.97;18.03;;;3.60;99.90;;;;;;6187217;23;20397;-55
2022/11/23 05:35:29;;;;;;;41.80;19.33;;;3.60;99.90;;;;;;6186397;23;20400;-54
2022/11/23 05:37:55;;;;;;;44.27;19.80;;;3.50;99.90;;;;;;6213240;23;20674;-55
2022/11/23 05:40:22;;;;;;;36.53;20.00;;;3.60;99.90;;;;;;6212364;23;20431;-55
2022/11/23 05:42:47;;;;;;;48.73;23.67;;;3.60;99.90;;;;;;6187087;23;20159;-55
2022/11/23 05:45:13;;;;;;;41.67;21.10;;;3.60;99.90;;;;;;6213427;23;20461;-55
2022/11/23 05:47:38;;;;;;;42.53;19.97;;;3.60;99.90;;;;;;6212850;23;20223;-51
2022/11/23 05:50:05;;;;;;;39.33;20.10;;;3.60;99.90;;;;;;6213577;23;20159;-55
2022/11/23 05:52:30;;;;;;;37.40;19.87;;;3.50;99.90;;;;;;6214886;23;20143;-55
2022/11/23 05:54:56;;;;;;;43.67;20.23;;;3.50;99.90;;;;;;6214069;23;20366;-55
2022/11/23 05:57:21;;;;;;;41.47;18.50;;;3.50;99.90;;;;;;6213721;23;20173;-55
2022/11/23 05:59:47;;;;;;;38.87;19.83;;;3.60;99.90;;;;;;6212843;23;20196;-62
2022/11/23 06:02:13;;;;;;;39.50;20.40;;;3.60;99.90;;;;;;6212676;23;20151;-55
2022/11/23 06:04:38;;;;;;;33.97;17.90;;;3.60;99.90;;;;;;6212591;23;20151;-54
2022/11/23 06:07:04;;;;;;;36.27;19.13;;;3.60;99.90;;;;;;6213006;23;20229;-55
2022/11/23 06:09:29;;;;;;;39.40;20.33;;;3.60;99.90;;;;;;6212527;23;20166;-55
2022/11/23 06:11:55;;;;;;;36.97;19.30;;;3.70;99.90;;;;;;6213108;23;20155;-55
2022/11/23 06:14:21;;;;;;;37.20;19.83;;;3.70;99.90;;;;;;6212654;23;20431;-50
2022/11/23 06:16:46;;;;;;;35.27;17.83;;;3.70;99.90;;;;;;6186439;23;20205;-56
2022/11/23 06:19:13;;;;;;;37.53;19.47;;;3.70;99.90;;;;;;6186756;23;20631;-55
2022/11/23 06:21:39;;;;;;;39.00;18.80;;;3.70;99.90;;;;;;6213116;23;20230;-55
2022/11/23 06:24:05;;;;;;;35.10;18.10;;;3.70;99.90;;;;;;6211689;23;20421;-55
2022/11/23 06:26:30;;;;;;;40.00;18.80;;;3.70;99.90;;;;;;6212214;23;20190;-55
2022/11/23 06:28:57;;;;;;;38.97;18.40;;;3.60;99.90;;;;;;6212292;23;20182;-55
2022/11/23 06:31:22;;;;;;;35.40;18.13;;;3.70;99.90;;;;;;6211343;23;20529;-56
2022/11/23 06:33:48;;;;;;;41.63;19.70;;;3.70;99.90;;;;;;6212142;23;20405;-55
2022/11/23 06:36:14;;;;;;;33.17;17.97;;;3.70;1.00;;;;;;6213624;23;20155;-55
2022/11/23 06:38:40;;;;;;;33.00;18.13;;;3.80;1.00;;;;;;6214043;23;20173;-56
2022/11/23 06:41:06;;;;;;;31.37;17.37;;;3.70;1.00;;;;;;6214017;23;20413;-55
2022/11/23 06:43:31;;;;;;;33.93;17.70;;;3.70;1.00;;;;;;6187403;23;20577;-55
2022/11/23 06:45:57;;;;;;;36.77;18.33;;;3.70;1.00;;;;;;6213778;23;20170;-55
2022/11/23 06:48:23;;;;;;;38.47;20.30;;;3.70;1.00;;;;;;6213142;23;20223;-55
2022/11/23 06:50:49;;;;;;;38.03;18.67;;;3.70;1.00;;;;;;6213201;23;20162;-55
2022/11/23 06:53:17;;;;;;;32.47;17.70;;;3.70;1.00;;;;;;6212630;23;20157;-56
2022/11/23 06:55:42;;;;;;;33.33;17.87;;;3.80;1.00;;;;;;6212568;23;20157;-55
2022/11/23 06:58:08;;;;;;;36.00;17.83;;;3.80;1.00;;;;;;6211686;23;20468;-55
2022/11/23 07:00:34;;;;;;;38.53;19.30;;;3.80;1.00;;;;;;6213045;23;20264;-55
2022/11/23 07:03:00;;;;;;;34.43;17.40;;;3.90;1.00;;;;;;6186179;23;20844;-55
2022/11/23 07:05:26;;;;;;;38.33;18.50;;;3.90;1.00;;;;;;6212939;23;20158;-55
2022/11/23 07:07:52;;;;;;;33.20;18.33;;;3.90;1.00;;;;;;6213011;23;20147;-55
2022/11/23 07:10:18;;;;;;;35.50;18.10;;;3.90;1.00;;;;;;6213447;23;20469;-56
2022/11/23 07:12:45;;;;;;;34.53;19.13;;;3.90;1.00;;;;;;6212967;23;20177;-55
2022/11/23 07:15:12;;;;;;;36.37;18.50;;;4.00;1.00;;;;;;6212991;23;20524;-56
2022/11/23 07:17:43;;;;;;;40.53;19.80;;;4.00;1.00;;;;;;6186796;23;20891;-55
2022/11/23 07:20:10;;;;;;;36.07;17.60;;;4.00;1.00;;;;;;6213180;23;20864;-55
2022/11/23 07:22:36;;;;;;;34.13;18.27;;;4.00;1.00;;;;;;6185979;23;20393;-55
2022/11/23 07:25:04;;;;;;;30.77;17.60;;;4.00;1.00;;;;;;6212848;23;20773;-55
2022/11/23 07:27:29;;;;;;;39.13;17.87;;;4.00;1.00;;;;;;6212888;23;20378;-56
2022/11/23 07:29:55;;;;;;;37.50;18.10;;;4.00;1.00;;;;;;6212791;23;20461;-56
2022/11/23 07:32:21;;;;;;;35.93;17.10;;;4.00;1.00;;;;;;6186094;23;20555;-56
2022/11/23 07:34:46;;;;;;;33.53;17.70;;;4.00;1.00;;;;;;6213090;23;20229;-56
2022/11/23 07:37:12;;;;;;;34.00;17.67;;;4.10;1.00;;;;;;6213315;23;20597;-56
2022/11/23 07:39:37;;;;;;;32.87;18.07;;;4.10;1.00;;;;;;6212568;23;20174;-56
2022/11/23 07:42:03;;;;;;;33.67;16.30;;;4.10;1.00;;;;;;6212507;23;20162;-45
2022/11/23 07:44:29;;;;;;;29.40;16.60;;;4.20;1.00;;;;;;6212158;23;20216;-45
2022/11/23 07:46:54;;;;;;;31.80;17.10;;;4.20;1.00;;;;;;6186896;23;20158;-56
2022/11/23 07:49:20;;;;;;;26.53;16.13;;;4.20;1.00;;;;;;6212996;23;20139;-56
2022/11/23 07:51:46;;;;;;;34.73;17.97;;;4.20;1.00;;;;;;6212449;23;20162;-55
2022/11/23 07:54:12;;;;;;;28.67;15.70;;;4.30;1.00;;;;;;6211545;23;20209;-55
2022/11/23 07:56:38;;;;;;;29.80;16.03;;;4.30;1.00;;;;;;6212561;23;20217;-51
2022/11/23 07:59:04;;;;;;;31.30;17.27;;;4.30;1.00;;;;;;6212270;23;20382;-55
2022/11/23 08:01:30;;;;;;;30.37;17.00;;;4.30;1.00;;;;;;6212802;23;20205;-55
2022/11/23 08:03:56;;;;;;;31.03;16.73;;;4.40;1.00;;;;;;6211215;23;20147;-56
2022/11/23 08:06:22;;;;;;;27.97;15.53;;;4.40;1.00;;;;;;6211454;23;20420;-55
2022/11/23 08:08:48;;;;;;;30.17;16.13;;;4.50;1.00;;;;;;6212340;23;20698;-55
2022/11/23 08:11:15;;;;;;;30.97;15.53;;;4.50;1.00;;;;;;6212406;23;20171;-54
2022/11/23 08:13:41;;;;;;;36.63;16.07;;;4.50;1.00;;;;;;6212498;23;20202;-55
2022/11/23 08:16:07;;;;;;;31.20;15.67;;;4.50;1.00;;;;;;6213252;23;20373;-55
2022/11/23 08:18:33;;;;;;;28.10;14.97;;;4.60;1.00;;;;;;6212664;23;20158;-54
2022/11/23 08:20:59;;;;;;;32.60;16.20;;;4.60;1.00;;;;;;6213038;23;20166;-55
2022/11/23 08:23:25;;;;;;;31.20;16.47;;;4.70;1.00;;;;;;6213157;23;20177;-55
2022/11/23 08:25:51;;;;;;;26.67;16.00;;;4.70;1.00;;;;;;6212904;23;20373;-51
2022/11/23 08:28:17;;;;;;;32.00;16.07;;;4.70;1.00;;;;;;6213545;23;20828;-55
2022/11/23 08:30:43;;;;;;;24.90;14.63;;;4.80;1.00;;;;;;6213269;23;20158;-56
2022/11/23 08:33:08;;;;;;;30.90;15.03;;;4.90;1.00;;;;;;6212705;23;20656;-53
2022/11/23 08:35:39;;;;;;;32.10;15.97;;;4.80;1.00;;;;;;6213669;23;20147;-55
2022/11/23 08:38:06;;;;;;;28.60;15.03;;;4.90;1.00;;;;;;6213829;23;20151;-55
2022/11/23 08:40:32;;;;;;;29.03;16.10;;;5.00;1.00;;;;;;6213022;23;20493;-55
2022/11/23 08:42:58;;;;;;;26.17;13.57;;;5.00;99.90;;;;;;6213272;23;20414;-57
2022/11/23 08:45:24;;;;;;;25.33;14.83;;;5.10;99.90;;;;;;6213510;23;20816;-55
2022/11/23 08:47:50;;;;;;;32.00;13.80;;;5.20;99.90;;;;;;6212923;23;20194;-55
2022/11/23 08:50:16;;;;;;;25.50;14.33;;;5.30;99.90;;;;;;6213450;23;20693;-54
2022/11/23 08:52:42;;;;;;;27.70;14.30;;;5.40;99.90;;;;;;6213364;23;20573;-54
2022/11/23 08:55:08;;;;;;;32.70;14.07;;;5.50;99.90;;;;;;6212716;23;20427;-54
2022/11/23 08:57:34;;;;;;;29.20;13.70;;;5.60;99.90;;;;;;6212713;23;20162;-55
2022/11/23 08:59:59;;;;;;;25.30;13.07;;;5.70;99.90;;;;;;6213001;23;20720;-54
2022/11/23 09:02:25;;;;;;;22.50;13.27;;;5.70;99.90;;;;;;6212208;23;20158;-55
2022/11/23 09:04:50;;;;;;;23.20;13.37;;;5.80;99.90;;;;;;6211768;23;20147;-54
2022/11/23 09:07:16;;;;;;;24.03;12.13;;;5.80;99.90;;;;;;6211941;23;20157;-53
2022/11/23 09:09:41;;;;;;;25.60;12.50;;;5.90;99.90;;;;;;6212304;23;20636;-53
2022/11/23 09:12:07;;;;;;;25.23;11.90;;;6.00;99.90;;;;;;6211862;23;20609;-54
2022/11/23 09:14:33;;;;;;;26.53;12.37;;;6.10;99.90;;;;;;6212913;23;20198;-54
2022/11/23 09:17:00;;;;;;;20.53;11.90;;;6.20;99.90;;;;;;6186568;23;20167;-53
2022/11/23 09:19:26;;;;;;;25.77;11.87;;;6.40;99.90;;;;;;6213046;23;20147;-53
2022/11/23 09:21:53;;;;;;;15.70;10.30;;;6.50;26.40;;;;;;6212619;23;20428;-53
2022/11/23 09:24:19;;;;;;;21.73;9.83;;;6.60;1.00;;;;;;6212901;23;20473;-53
2022/11/23 09:26:44;;;;;;;15.33;9.53;;;6.70;1.00;;;;;;6212733;23;20366;-52
2022/11/23 09:29:10;;;;;;;13.30;9.60;;;6.70;1.00;;;;;;6186327;23;20393;-50
2022/11/23 09:31:36;;;;;;;13.47;8.70;;;6.60;1.00;;;;;;6213284;23;20151;-53
2022/11/23 09:34:01;;;;;;;13.40;8.40;;;6.60;1.00;;;;;;6213198;23;20147;-54
2022/11/23 09:36:27;;;;;;;18.40;10.17;;;6.60;1.00;;;;;;6213097;23;20461;-53
2022/11/23 09:38:53;;;;;;;17.73;9.07;;;6.70;1.00;;;;;;6214785;23;20146;-53
2022/11/23 09:41:42;;;;;;;19.40;9.43;;;6.70;1.00;;;;;;6214707;23;20253;-53
2022/11/23 09:44:25;;;;;;;13.87;8.17;;;6.80;1.00;;;;;;6213130;23;20766;-55
2022/11/23 09:47:28;;;;;;;13.40;7.87;;;6.90;1.00;;;;;;6213327;23;20362;-53
2022/11/23 09:49:58;;;;;;;14.30;8.07;;;7.00;99.90;;;;;;6213097;23;20377;-53
2022/11/23 09:52:24;;;;;;;18.47;8.97;;;7.10;99.90;;;;;;6213009;23;20366;-54
2022/11/23 09:54:54;;;;;;;19.70;8.30;;;7.10;99.90;;;;;;6213267;23;20447;-53
2022/11/23 09:57:24;;;;;;;11.67;8.30;;;7.20;99.90;;;;;;6213183;23;20435;-53
2022/11/23 09:59:59;;;;;;;11.53;7.40;;;7.20;1.00;;;;;;6214691;23;20911;-52
2022/11/23 10:02:27;;;;;;;11.27;7.80;;;7.20;1.00;;;;;;6214773;23;20739;-53
2022/11/23 10:04:55;;;;;;;17.20;8.60;;;7.20;1.00;;;;;;6214747;23;20385;-52
2022/11/23 10:07:24;;;;;;;22.17;9.20;;;7.40;90.50;;;;;;6214969;23;20860;-52
2022/11/23 10:10:01;;;;;;;15.63;8.10;;;7.50;1.00;;;;;;6214500;23;20465;-52
2022/11/23 10:12:48;;;;;;;13.50;7.83;;;7.80;54.20;;;;;;6214255;23;20375;-52
2022/11/23 10:15:30;;;;;;;18.23;8.43;;;8.10;1.00;;;;;;6213973;23;20537;-52
2022/11/23 10:18:14;;;;;;;13.20;7.40;;;8.30;1.00;;;;;;6214315;23;20393;-52
2022/11/23 10:20:49;;;;;;;15.20;7.30;;;8.70;1.00;;;;;;6214255;23;20416;-52
2022/11/23 10:23:39;;;;;;;12.50;7.00;;;8.80;99.90;;;;;;6214458;23;20838;-52
2022/11/23 10:26:10;;;;;;;14.27;7.20;;;8.80;1.00;;;;;;6214351;23;20358;-52
2022/11/23 10:28:36;;;;;;;13.90;6.77;;;8.70;99.90;;;;;;6214345;23;21041;-52
2022/11/23 10:31:20;;;;;;;11.30;6.90;;;8.70;1.00;;;;;;6214605;23;20417;-52
2022/11/23 10:33:52;;;;;;;14.10;7.00;;;8.60;1.00;;;;;;6214206;23;20161;-51
2022/11/23 10:36:17;;;;;;;13.80;7.10;;;8.40;99.90;;;;;;6213799;23;20388;-52
2022/11/23 10:38:45;;;;;;;13.37;6.90;;;8.30;97.20;;;;;;6214619;23;20373;-52
2022/11/23 10:41:12;;;;;;;14.73;6.83;;;8.30;99.90;;;;;;6214273;23;20183;-52
2022/11/23 10:43:54;;;;;;;14.90;6.70;;;8.30;1.00;;;;;;6214530;23;20750;-52
2022/11/23 10:46:25;;;;;;;18.23;7.80;;;8.20;1.00;;;;;;6213753;23;20385;-56
2022/11/23 10:48:51;;;;;;;21.70;8.77;;;8.10;59.40;;;;;;6213829;23;20358;-53
2022/11/23 10:51:31;;;;;;;22.20;9.93;;;8.20;99.90;;;;;;6214180;23;21064;-52
2022/11/23 10:54:03;;;;;;;19.03;8.23;;;8.10;1.00;;;;;;6214029;23;20365;-53
2022/11/23 10:56:29;;;;;;;25.30;9.03;;;8.10;1.00;;;;;;6214255;23;20385;-53
2022/11/23 10:58:55;;;;;;;15.43;9.10;;;8.10;1.00;;;;;;6214213;23;20373;-53
2022/11/23 11:01:24;;;;;;;14.87;8.73;;;8.20;1.00;;;;;;6214357;23;20883;-53
2022/11/23 11:03:51;;;;;;;16.97;8.90;;;8.20;1.00;;;;;;6213869;23;20366;-53
2022/11/23 11:06:28;;;;;;;18.80;9.07;;;8.20;99.90;;;;;;6212901;23;20377;-53
2022/11/23 11:09:00;;;;;;;16.33;9.17;;;8.20;99.90;;;;;;6214038;23;20389;-52
2022/11/23 11:11:29;;;;;;;17.77;9.43;;;8.20;1.00;;;;;;6213823;23;20366;-53
2022/11/23 11:14:05;;;;;;;14.17;9.10;;;8.20;99.90;;;;;;6212992;23;20460;-53
2022/11/23 11:16:34;;;;;;;16.90;8.70;;;8.20;99.90;;;;;;6213796;23;20432;-52
2022/11/23 11:19:19;;;;;;;15.70;7.50;;;8.20;1.00;;;;;;6213691;23;20405;-53
2022/11/23 11:21:45;;;;;;;15.37;7.70;;;8.10;1.00;;;;;;6212765;23;20876;-53
2022/11/23 11:24:18;;;;;;;16.73;8.23;;;8.00;99.90;;;;;;6212990;23;20412;-53
2022/11/23 11:26:55;;;;;;;16.17;8.23;;;7.90;71.60;;;;;;6213906;23;20162;-53
2022/11/23 11:29:30;;;;;;;15.13;8.10;;;7.90;1.00;;;;;;6188788;23;20388;-53
2022/11/23 11:31:59;;;;;;;11.30;7.27;;;7.90;1.00;;;;;;6187110;23;20385;-53
2022/11/23 11:34:30;;;;;;;14.37;6.30;;;8.00;1.00;;;;;;6213140;23;20452;-53
2022/11/23 11:37:23;;;;;;;13.90;7.40;;;8.00;99.90;;;;;;6211347;23;20373;-53
2022/11/23 11:39:52;;;;;;;16.70;7.73;;;8.10;1.00;;;;;;6212787;23;20432;-53
2022/11/23 11:42:33;;;;;;;13.90;6.63;;;8.20;99.90;;;;;;6213509;23;20374;-51
2022/11/23 11:45:02;;;;;;;14.37;6.70;;;8.30;99.90;;;;;;6213068;23;20378;-53
2022/11/23 11:47:36;;;;;;;13.60;6.70;;;8.30;62.40;;;;;;6187036;23;20377;-52
2022/11/23 11:50:17;;;;;;;11.83;6.50;;;8.30;41.30;;;;;;6213647;23;20820;-53
2022/11/23 11:52:44;;;;;;;12.50;6.33;;;8.30;79.10;;;;;;6214001;23;20775;-53
2022/11/23 11:55:22;;;;;;;19.17;6.40;;;8.30;34.60;;;;;;6213852;23;20820;-53
2022/11/23 11:58:02;;;;;;;19.00;8.20;;;8.40;35.30;;;;;;6212912;23;20365;-54
2022/11/23 12:00:32;;;;;;;15.60;7.63;;;8.30;99.90;;;;;;6213262;23;20488;-54
2022/11/23 12:03:52;;;;;;;18.87;7.83;;;8.40;99.90;;;;;;6213060;23;20378;-53
2022/11/23 12:06:32;;;;;;;13.73;6.73;;;8.50;99.90;;;;;;6150409;23;20450;-53
2022/11/23 12:09:09;;;;;;;11.13;6.00;;;8.70;99.90;;;;;;6178606;23;20393;-53
2022/11/23 12:11:36;;;;;;;11.53;5.57;;;8.90;99.90;;;;;;6209897;23;20443;-53
2022/11/23 12:14:05;;;;;;;10.50;6.13;;;9.00;1.00;;;;;;6186792;23;20483;-54
2022/11/23 12:16:52;;;;;;;8.50;5.47;;;9.00;1.00;;;;;;6187487;23;20389;-50
2022/11/23 12:19:25;;;;;;;8.50;4.47;;;9.00;1.00;;;;;;6213512;23;20358;-54
2022/11/23 12:22:06;;;;;;;11.70;5.50;;;8.90;1.00;;;;;;6213588;23;20382;-53
2022/11/23 12:25:10;;;;;;;13.73;5.70;;;8.80;1.00;;;;;;6213442;23;20361;-54
2022/11/23 12:27:51;;;;;;;16.03;5.57;;;8.70;1.00;;;;;;6213106;23;20346;-54
2022/11/23 12:30:29;;;;;;;11.23;6.07;;;8.70;1.00;;;;;;6212520;23;20826;-53
2022/11/23 12:33:19;;;;;;;12.27;5.17;;;8.70;1.00;;;;;;6212741;23;20357;-53
2022/11/23 12:35:47;;;;;;;10.80;5.70;;;8.70;1.00;;;;;;6212670;23;20366;-53
2022/11/23 12:38:35;;;;;;;17.50;6.50;;;8.70;1.00;;;;;;6212645;23;20698;-53
2022/11/23 12:41:20;;;;;;;13.57;5.00;;;8.80;94.70;;;;;;6211956;23;20417;-53
2022/11/23 12:44:01;;;;;;;11.07;5.60;;;9.00;1.00;;;;;;6212157;23;20366;-53
2022/11/23 12:46:32;;;;;;;16.43;5.70;;;9.00;1.00;;;;;;6213377;23;20417;-53
2022/11/23 12:49:16;;;;;;;9.47;5.67;;;8.90;1.00;;;;;;6213605;23;20993;-54
2022/11/23 12:52:19;;;;;;;9.83;5.50;;;8.80;1.00;;;;;;6212440;23;20366;-53
2022/11/23 12:55:23;;;;;;;16.40;5.80;;;8.70;1.00;;;;;;6212658;23;20393;-54